sensor_id;sensor_type;location;lat;lon;timestamp;temperature;humidity
28677;DHT22;15858;48.338;11.078;2023-03-01T00:00:50;1.70;99.90
28677;DHT22;15858;48.338;11.078;2023-03-01T00:03:16;1.50;99.90
28677;DHT22;15858;48.338;11.078;2023-03-01T00:05:46;1.50;99.90
28677;DHT22;15858;48.338;11.078;2023-03-01T00:08:13;1.60;99.90
28677;DHT22;15858;48.338;11.078;2023-03-01T00:10:39;1.60;99.90
28677;DHT22;15858;48.338;11.078;2023-03-01T00:13:06;1.50;99.90
28677;DHT22;15858;48.338;11.078;2023-03-01T00:15:32;1.50;99.90
28677;DHT22;15858;48.338;11.078;2023-03-01T00:17:59;1.50;99.90
28677;DHT22;15858;48.338;11.078;2023-03-01T00:20:26;1.50;99.90
28677;DHT22;15858;48.338;11.078;2023-03-01T00:22:52;1.50;99.90
28677;DHT22;15858;48.338;11.078;2023-03-01T00:25:19;1.60;99.90
28677;DHT22;15858;48.338;11.078;2023-03-01T00:27:46;1.60;99.90
28677;DHT22;15858;48.338;11.078;2023-03-01T00:30:13;1.70;99.90
28677;DHT22;15858;48.338;11.078;2023-03-01T00:32:40;1.70;99.90
28677;DHT22;15858;48.338;11.078;2023-03-01T00:35:07;1.50;99.90
28677;DHT22;15858;48.338;11.078;2023-03-01T00:37:33;1.50;99.90
28677;DHT22;15858;48.338;11.078;2023-03-01T00:40:00;1.50;99.90
28677;DHT22;15858;48.338;11.078;2023-03-01T00:42:26;1.50;99.90
28677;DHT22;15858;48.338;11.078;2023-03-01T00:44:53;1.50;99.90
28677;DHT22;15858;48.338;11.078;2023-03-01T00:47:20;1.60;99.90
28677;DHT22;15858;48.338;11.078;2023-03-01T00:49:46;1.60;99.90
28677;DHT22;15858;48.338;11.078;2023-03-01T00:52:13;1.60;99.90
28677;DHT22;15858;48.338;11.078;2023-03-01T00:54:39;1.60;99.90
28677;DHT22;15858;48.338;11.078;2023-03-01T00:57:06;1.50;99.90
28677;DHT22;15858;48.338;11.078;2023-03-01T00:59:33;1.50;99.90
28677;DHT22;15858;48.338;11.078;2023-03-01T01:01:59;1.50;99.90
28677;DHT22;15858;48.338;11.078;2023-03-01T01:04:26;1.50;99.90
28677;DHT22;15858;48.338;11.078;2023-03-01T01:06:52;1.60;99.90
28677;DHT22;15858;48.338;11.078;2023-03-01T01:09:19;1.60;99.90
28677;DHT22;15858;48.338;11.078;2023-03-01T01:11:48;1.60;99.90
28677;DHT22;15858;48.338;11.078;2023-03-01T01:14:16;1.60;99.90
28677;DHT22;15858;48.338;11.078;2023-03-01T01:16:44;1.60;99.90
28677;DHT22;15858;48.338;11.078;2023-03-01T01:19:11;1.50;99.90
28677;DHT22;15858;48.338;11.078;2023-03-01T01:21:37;1.50;99.90
28677;DHT22;15858;48.338;11.078;2023-03-01T01:24:05;1.50;99.90
28677;DHT22;15858;48.338;11.078;2023-03-01T01:26:33;1.40;99.90
28677;DHT22;15858;48.338;11.078;2023-03-01T01:29:01;1.40;99.90
28677;DHT22;15858;48.338;11.078;2023-03-01T01:31:29;1.40;99.90
28677;DHT22;15858;48.338;11.078;2023-03-01T01:33:56;1.50;99.90
28677;DHT22;15858;48.338;11.078;2023-03-01T01:36:23;1.50;99.90
28677;DHT22;15858;48.338;11.078;2023-03-01T01:38:50;1.40;99.90
28677;DHT22;15858;48.338;11.078;2023-03-01T01:41:17;1.50;99.90
28677;DHT22;15858;48.338;11.078;2023-03-01T01:43:48;1.50;99.90
28677;DHT22;15858;48.338;11.078;2023-03-01T01:48:55;1.50;99.90
28677;DHT22;15858;48.338;11.078;2023-03-01T01:51:25;1.50;99.90
28677;DHT22;15858;48.338;11.078;2023-03-01T01:53:58;1.50;99.90
28677;DHT22;15858;48.338;11.078;2023-03-01T01:56:26;1.50;99.90
28677;DHT22;15858;48.338;11.078;2023-03-01T01:58:55;1.50;99.90
28677;DHT22;15858;48.338;11.078;2023-03-01T02:01:22;1.50;99.90
28677;DHT22;15858;48.338;11.078;2023-03-01T02:03:49;1.50;99.90
28677;DHT22;15858;48.338;11.078;2023-03-01T02:06:38;1.50;99.90
28677;DHT22;15858;48.338;11.078;2023-03-01T02:09:13;1.50;99.90
28677;DHT22;15858;48.338;11.078;2023-03-01T02:11:40;1.50;99.90
28677;DHT22;15858;48.338;11.078;2023-03-01T02:14:07;1.50;99.90
28677;DHT22;15858;48.338;11.078;2023-03-01T02:16:34;1.40;99.90
28677;DHT22;15858;48.338;11.078;2023-03-01T02:19:03;1.50;99.90
28677;DHT22;15858;48.338;11.078;2023-03-01T02:21:55;1.40;99.90
28677;DHT22;15858;48.338;11.078;2023-03-01T02:27:06;1.50;99.90
28677;DHT22;15858;48.338;11.078;2023-03-01T02:29:33;1.60;99.90
28677;DHT22;15858;48.338;11.078;2023-03-01T02:32:02;1.60;99.90
28677;DHT22;15858;48.338;11.078;2023-03-01T02:34:31;1.40;99.90
28677;DHT22;15858;48.338;11.078;2023-03-01T02:37:05;1.40;99.90
28677;DHT22;15858;48.338;11.078;2023-03-01T02:39:38;1.50;99.90
28677;DHT22;15858;48.338;11.078;2023-03-01T02:42:07;1.30;99.90
28677;DHT22;15858;48.338;11.078;2023-03-01T02:44:35;1.30;99.90
28677;DHT22;15858;48.338;11.078;2023-03-01T02:47:03;1.30;99.90
28677;DHT22;15858;48.338;11.078;2023-03-01T02:49:32;1.30;99.90
28677;DHT22;15858;48.338;11.078;2023-03-01T02:52:27;1.20;99.90
28677;DHT22;15858;48.338;11.078;2023-03-01T02:55:23;1.20;99.90
28677;DHT22;15858;48.338;11.078;2023-03-01T02:57:49;1.20;99.90
28677;DHT22;15858;48.338;11.078;2023-03-01T03:00:26;1.30;99.90
28677;DHT22;15858;48.338;11.078;2023-03-01T03:02:55;1.20;99.90
28677;DHT22;15858;48.338;11.078;2023-03-01T03:05:24;1.20;99.90
28677;DHT22;15858;48.338;11.078;2023-03-01T03:07:51;1.40;99.90
28677;DHT22;15858;48.338;11.078;2023-03-01T03:10:27;1.40;99.90
28677;DHT22;15858;48.338;11.078;2023-03-01T03:13:00;1.30;99.90
28677;DHT22;15858;48.338;11.078;2023-03-01T03:15:28;1.20;99.90
28677;DHT22;15858;48.338;11.078;2023-03-01T03:17:57;1.20;99.90
28677;DHT22;15858;48.338;11.078;2023-03-01T03:20:27;1.20;99.90
28677;DHT22;15858;48.338;11.078;2023-03-01T03:22:57;1.20;99.90
28677;DHT22;15858;48.338;11.078;2023-03-01T03:25:26;1.20;99.90
28677;DHT22;15858;48.338;11.078;2023-03-01T03:27:53;1.10;99.90
28677;DHT22;15858;48.338;11.078;2023-03-01T03:30:20;1.00;99.90
28677;DHT22;15858;48.338;11.078;2023-03-01T03:32:47;1.00;99.90
28677;DHT22;15858;48.338;11.078;2023-03-01T03:35:14;1.10;99.90
28677;DHT22;15858;48.338;11.078;2023-03-01T03:37:41;1.00;99.90
28677;DHT22;15858;48.338;11.078;2023-03-01T03:40:09;1.10;99.90
28677;DHT22;15858;48.338;11.078;2023-03-01T03:42:35;1.20;99.90
28677;DHT22;15858;48.338;11.078;2023-03-01T03:45:02;1.10;99.90
28677;DHT22;15858;48.338;11.078;2023-03-01T03:47:29;1.00;99.90
28677;DHT22;15858;48.338;11.078;2023-03-01T03:49:55;1.00;99.90
28677;DHT22;15858;48.338;11.078;2023-03-01T03:52:22;1.00;99.90
28677;DHT22;15858;48.338;11.078;2023-03-01T03:54:48;1.20;99.90
28677;DHT22;15858;48.338;11.078;2023-03-01T03:57:15;0.90;99.90
28677;DHT22;15858;48.338;11.078;2023-03-01T03:59:41;1.00;99.90
28677;DHT22;15858;48.338;11.078;2023-03-01T04:02:08;1.00;99.90
28677;DHT22;15858;48.338;11.078;2023-03-01T04:04:35;1.00;99.90
28677;DHT22;15858;48.338;11.078;2023-03-01T04:07:01;1.00;99.90
28677;DHT22;15858;48.338;11.078;2023-03-01T04:09:28;0.90;99.90
28677;DHT22;15858;48.338;11.078;2023-03-01T04:11:54;0.90;99.90
28677;DHT22;15858;48.338;11.078;2023-03-01T04:14:21;0.90;99.90
28677;DHT22;15858;48.338;11.078;2023-03-01T04:16:47;0.90;99.90
28677;DHT22;15858;48.338;11.078;2023-03-01T04:19:14;0.80;99.90
28677;DHT22;15858;48.338;11.078;2023-03-01T04:21:41;0.80;99.90
28677;DHT22;15858;48.338;11.078;2023-03-01T04:24:07;0.70;99.90
28677;DHT22;15858;48.338;11.078;2023-03-01T04:26:34;0.80;99.90
28677;DHT22;15858;48.338;11.078;2023-03-01T04:29:00;1.00;99.90
28677;DHT22;15858;48.338;11.078;2023-03-01T04:31:27;0.90;99.90
28677;DHT22;15858;48.338;11.078;2023-03-01T04:33:55;0.80;99.90
28677;DHT22;15858;48.338;11.078;2023-03-01T04:36:25;0.70;99.90
28677;DHT22;15858;48.338;11.078;2023-03-01T04:38:52;0.70;99.90
28677;DHT22;15858;48.338;11.078;2023-03-01T04:41:21;0.70;99.90
28677;DHT22;15858;48.338;11.078;2023-03-01T04:43:48;0.90;99.90
28677;DHT22;15858;48.338;11.078;2023-03-01T04:46:18;0.80;99.90
28677;DHT22;15858;48.338;11.078;2023-03-01T04:48:45;0.80;99.90
28677;DHT22;15858;48.338;11.078;2023-03-01T04:51:12;0.90;99.90
28677;DHT22;15858;48.338;11.078;2023-03-01T04:53:39;0.80;99.90
28677;DHT22;15858;48.338;11.078;2023-03-01T04:56:06;0.70;99.90
28677;DHT22;15858;48.338;11.078;2023-03-01T04:58:33;0.80;99.90
28677;DHT22;15858;48.338;11.078;2023-03-01T05:01:00;0.80;99.90
28677;DHT22;15858;48.338;11.078;2023-03-01T05:03:26;0.70;99.90
28677;DHT22;15858;48.338;11.078;2023-03-01T05:05:53;0.60;99.90
28677;DHT22;15858;48.338;11.078;2023-03-01T05:08:19;0.60;99.90
28677;DHT22;15858;48.338;11.078;2023-03-01T05:10:51;0.40;99.90
28677;DHT22;15858;48.338;11.078;2023-03-01T05:13:19;0.50;99.90
28677;DHT22;15858;48.338;11.078;2023-03-01T05:15:57;0.40;99.90
28677;DHT22;15858;48.338;11.078;2023-03-01T05:18:25;0.30;99.90
28677;DHT22;15858;48.338;11.078;2023-03-01T05:20:52;0.30;99.90
28677;DHT22;15858;48.338;11.078;2023-03-01T05:23:19;0.30;99.90
28677;DHT22;15858;48.338;11.078;2023-03-01T05:25:46;0.20;99.90
28677;DHT22;15858;48.338;11.078;2023-03-01T05:28:12;0.20;99.90
28677;DHT22;15858;48.338;11.078;2023-03-01T05:30:40;0.20;99.90
28677;DHT22;15858;48.338;11.078;2023-03-01T05:33:08;0.20;99.90
28677;DHT22;15858;48.338;11.078;2023-03-01T05:35:34;0.10;99.90
28677;DHT22;15858;48.338;11.078;2023-03-01T05:38:01;0.00;99.90
28677;DHT22;15858;48.338;11.078;2023-03-01T05:40:27;0.00;99.90
28677;DHT22;15858;48.338;11.078;2023-03-01T05:42:56;0.00;99.90
28677;DHT22;15858;48.338;11.078;2023-03-01T05:45:24;0.00;99.90
28677;DHT22;15858;48.338;11.078;2023-03-01T05:47:51;-0.10;99.90
28677;DHT22;15858;48.338;11.078;2023-03-01T05:50:20;-0.10;99.90
28677;DHT22;15858;48.338;11.078;2023-03-01T05:52:49;-0.10;99.90
28677;DHT22;15858;48.338;11.078;2023-03-01T05:55:21;-0.20;99.90
28677;DHT22;15858;48.338;11.078;2023-03-01T05:57:48;-0.20;99.90
28677;DHT22;15858;48.338;11.078;2023-03-01T06:00:17;-0.20;99.90
28677;DHT22;15858;48.338;11.078;2023-03-01T06:02:44;-0.20;99.90
28677;DHT22;15858;48.338;11.078;2023-03-01T06:05:12;-0.10;99.90
28677;DHT22;15858;48.338;11.078;2023-03-01T06:07:39;0.00;99.90
28677;DHT22;15858;48.338;11.078;2023-03-01T06:10:06;-0.10;99.90
28677;DHT22;15858;48.338;11.078;2023-03-01T06:12:35;-0.20;99.90
28677;DHT22;15858;48.338;11.078;2023-03-01T06:15:03;-0.20;99.90
28677;DHT22;15858;48.338;11.078;2023-03-01T06:17:31;-0.20;99.90
28677;DHT22;15858;48.338;11.078;2023-03-01T06:19:58;-0.10;99.90
28677;DHT22;15858;48.338;11.078;2023-03-01T06:22:25;0.00;99.90
28677;DHT22;15858;48.338;11.078;2023-03-01T06:24:51;-0.10;99.90
28677;DHT22;15858;48.338;11.078;2023-03-01T06:27:18;-0.10;99.90
28677;DHT22;15858;48.338;11.078;2023-03-01T06:29:44;-0.10;99.90
28677;DHT22;15858;48.338;11.078;2023-03-01T06:32:11;-0.20;99.90
28677;DHT22;15858;48.338;11.078;2023-03-01T06:34:38;-0.20;99.90
28677;DHT22;15858;48.338;11.078;2023-03-01T06:37:04;-0.20;99.90
28677;DHT22;15858;48.338;11.078;2023-03-01T06:39:32;-0.20;99.90
28677;DHT22;15858;48.338;11.078;2023-03-01T06:41:59;-0.10;99.90
28677;DHT22;15858;48.338;11.078;2023-03-01T06:44:27;-0.10;99.90
28677;DHT22;15858;48.338;11.078;2023-03-01T06:46:53;0.00;99.90
28677;DHT22;15858;48.338;11.078;2023-03-01T06:49:20;-0.10;99.90
28677;DHT22;15858;48.338;11.078;2023-03-01T06:51:47;-0.10;99.90
28677;DHT22;15858;48.338;11.078;2023-03-01T06:54:13;-0.10;99.90
28677;DHT22;15858;48.338;11.078;2023-03-01T06:56:40;-0.10;99.90
28677;DHT22;15858;48.338;11.078;2023-03-01T06:59:07;0.00;99.90
28677;DHT22;15858;48.338;11.078;2023-03-01T07:01:33;0.00;99.90
28677;DHT22;15858;48.338;11.078;2023-03-01T07:04:00;0.00;99.90
28677;DHT22;15858;48.338;11.078;2023-03-01T07:06:26;-0.10;99.90
28677;DHT22;15858;48.338;11.078;2023-03-01T07:08:53;0.00;99.90
28677;DHT22;15858;48.338;11.078;2023-03-01T07:11:20;0.10;99.90
28677;DHT22;15858;48.338;11.078;2023-03-01T07:13:47;0.10;99.90
28677;DHT22;15858;48.338;11.078;2023-03-01T07:16:13;0.40;99.90
28677;DHT22;15858;48.338;11.078;2023-03-01T07:18:40;0.30;99.90
28677;DHT22;15858;48.338;11.078;2023-03-01T07:21:08;0.50;99.90
28677;DHT22;15858;48.338;11.078;2023-03-01T07:23:35;0.40;99.90
28677;DHT22;15858;48.338;11.078;2023-03-01T07:26:02;0.40;99.90
28677;DHT22;15858;48.338;11.078;2023-03-01T07:28:28;0.40;99.90
28677;DHT22;15858;48.338;11.078;2023-03-01T07:30:55;0.50;99.90
28677;DHT22;15858;48.338;11.078;2023-03-01T07:33:26;0.40;99.90
28677;DHT22;15858;48.338;11.078;2023-03-01T07:36:00;0.60;99.90
28677;DHT22;15858;48.338;11.078;2023-03-01T07:38:27;0.60;99.90
28677;DHT22;15858;48.338;11.078;2023-03-01T07:40:58;0.60;99.90
28677;DHT22;15858;48.338;11.078;2023-03-01T07:43:25;0.50;99.90
28677;DHT22;15858;48.338;11.078;2023-03-01T07:45:52;0.60;99.90
28677;DHT22;15858;48.338;11.078;2023-03-01T07:48:19;0.60;99.90
28677;DHT22;15858;48.338;11.078;2023-03-01T07:50:45;0.60;99.90
28677;DHT22;15858;48.338;11.078;2023-03-01T07:53:12;0.60;99.90
28677;DHT22;15858;48.338;11.078;2023-03-01T07:55:38;0.70;99.90
28677;DHT22;15858;48.338;11.078;2023-03-01T07:58:05;0.90;99.90
28677;DHT22;15858;48.338;11.078;2023-03-01T08:00:32;1.00;99.90
28677;DHT22;15858;48.338;11.078;2023-03-01T08:02:59;0.80;99.90
28677;DHT22;15858;48.338;11.078;2023-03-01T08:05:26;0.80;99.90
28677;DHT22;15858;48.338;11.078;2023-03-01T08:07:53;0.80;99.90
28677;DHT22;15858;48.338;11.078;2023-03-01T08:10:20;0.90;99.90
28677;DHT22;15858;48.338;11.078;2023-03-01T08:12:46;0.90;99.90
28677;DHT22;15858;48.338;11.078;2023-03-01T08:15:13;0.90;99.90
28677;DHT22;15858;48.338;11.078;2023-03-01T08:17:40;1.00;99.90
28677;DHT22;15858;48.338;11.078;2023-03-01T08:20:06;1.00;99.90
28677;DHT22;15858;48.338;11.078;2023-03-01T08:22:33;1.20;99.90
28677;DHT22;15858;48.338;11.078;2023-03-01T08:25:00;1.10;99.90
28677;DHT22;15858;48.338;11.078;2023-03-01T08:27:26;1.20;99.90
28677;DHT22;15858;48.338;11.078;2023-03-01T08:29:53;1.10;99.90
28677;DHT22;15858;48.338;11.078;2023-03-01T08:32:20;1.10;99.90
28677;DHT22;15858;48.338;11.078;2023-03-01T08:34:47;1.00;99.90
28677;DHT22;15858;48.338;11.078;2023-03-01T08:37:13;1.10;99.90
28677;DHT22;15858;48.338;11.078;2023-03-01T08:39:40;1.00;99.90
28677;DHT22;15858;48.338;11.078;2023-03-01T08:42:07;1.20;99.90
28677;DHT22;15858;48.338;11.078;2023-03-01T08:44:33;1.20;99.90
28677;DHT22;15858;48.338;11.078;2023-03-01T08:47:00;1.30;99.90
28677;DHT22;15858;48.338;11.078;2023-03-01T08:49:26;1.40;99.90
28677;DHT22;15858;48.338;11.078;2023-03-01T08:51:53;1.30;99.90
28677;DHT22;15858;48.338;11.078;2023-03-01T08:54:21;1.30;99.90
28677;DHT22;15858;48.338;11.078;2023-03-01T08:56:49;1.40;99.90
28677;DHT22;15858;48.338;11.078;2023-03-01T08:59:16;1.30;99.90
28677;DHT22;15858;48.338;11.078;2023-03-01T09:01:43;1.30;99.90
28677;DHT22;15858;48.338;11.078;2023-03-01T09:04:11;1.50;99.90
28677;DHT22;15858;48.338;11.078;2023-03-01T09:06:37;1.60;99.90
28677;DHT22;15858;48.338;11.078;2023-03-01T09:09:05;1.60;99.90
28677;DHT22;15858;48.338;11.078;2023-03-01T09:11:32;1.60;99.90
28677;DHT22;15858;48.338;11.078;2023-03-01T09:13:59;1.60;99.90
28677;DHT22;15858;48.338;11.078;2023-03-01T09:16:25;1.40;99.90
28677;DHT22;15858;48.338;11.078;2023-03-01T09:18:53;1.50;99.90
28677;DHT22;15858;48.338;11.078;2023-03-01T09:21:22;1.80;99.90
28677;DHT22;15858;48.338;11.078;2023-03-01T09:24:04;1.80;99.90
28677;DHT22;15858;48.338;11.078;2023-03-01T09:26:31;1.80;99.90
28677;DHT22;15858;48.338;11.078;2023-03-01T09:28:59;1.70;99.90
28677;DHT22;15858;48.338;11.078;2023-03-01T09:31:25;1.80;99.90
28677;DHT22;15858;48.338;11.078;2023-03-01T09:33:53;1.80;99.90
28677;DHT22;15858;48.338;11.078;2023-03-01T09:36:22;1.80;99.90
28677;DHT22;15858;48.338;11.078;2023-03-01T09:38:50;1.80;99.90
28677;DHT22;15858;48.338;11.078;2023-03-01T09:43:53;1.90;99.90
28677;DHT22;15858;48.338;11.078;2023-03-01T09:46:23;2.20;99.90
28677;DHT22;15858;48.338;11.078;2023-03-01T09:48:58;2.40;99.90
28677;DHT22;15858;48.338;11.078;2023-03-01T09:51:34;2.70;99.90
28677;DHT22;15858;48.338;11.078;2023-03-01T09:54:03;3.00;99.90
28677;DHT22;15858;48.338;11.078;2023-03-01T09:56:34;3.30;99.90
28677;DHT22;15858;48.338;11.078;2023-03-01T10:00:00;3.50;99.90
28677;DHT22;15858;48.338;11.078;2023-03-01T10:02:27;3.80;99.90
28677;DHT22;15858;48.338;11.078;2023-03-01T10:10:55;4.50;99.90
28677;DHT22;15858;48.338;11.078;2023-03-01T10:13:45;4.50;99.90
28677;DHT22;15858;48.338;11.078;2023-03-01T10:16:26;4.70;99.90
28677;DHT22;15858;48.338;11.078;2023-03-01T10:19:03;4.70;99.90
28677;DHT22;15858;48.338;11.078;2023-03-01T10:21:35;4.60;99.90
28677;DHT22;15858;48.338;11.078;2023-03-01T10:24:14;4.80;99.90
28677;DHT22;15858;48.338;11.078;2023-03-01T10:26:55;5.10;99.90
28677;DHT22;15858;48.338;11.078;2023-03-01T10:29:48;5.40;99.90
28677;DHT22;15858;48.338;11.078;2023-03-01T10:32:16;5.60;99.90
28677;DHT22;15858;48.338;11.078;2023-03-01T10:34:43;5.60;99.90
28677;DHT22;15858;48.338;11.078;2023-03-01T10:37:15;5.80;99.90
28677;DHT22;15858;48.338;11.078;2023-03-01T10:40:02;5.70;99.90
28677;DHT22;15858;48.338;11.078;2023-03-01T10:42:55;5.90;99.90
28677;DHT22;15858;48.338;11.078;2023-03-01T10:45:36;5.60;99.90
28677;DHT22;15858;48.338;11.078;2023-03-01T10:50:31;5.90;99.90
28677;DHT22;15858;48.338;11.078;2023-03-01T10:53:04;5.80;99.90
28677;DHT22;15858;48.338;11.078;2023-03-01T10:55:34;5.80;99.90
28677;DHT22;15858;48.338;11.078;2023-03-01T11:00:52;6.20;99.90
28677;DHT22;15858;48.338;11.078;2023-03-01T11:03:24;6.00;99.90
28677;DHT22;15858;48.338;11.078;2023-03-01T11:08:42;5.90;99.90
28677;DHT22;15858;48.338;11.078;2023-03-01T11:21:44;6.80;99.90
28677;DHT22;15858;48.338;11.078;2023-03-01T11:24:14;6.90;99.90
28677;DHT22;15858;48.338;11.078;2023-03-01T11:26:46;6.90;99.90
28677;DHT22;15858;48.338;11.078;2023-03-01T11:31:54;7.10;99.90
28677;DHT22;15858;48.338;11.078;2023-03-01T11:34:46;7.00;99.90
28677;DHT22;15858;48.338;11.078;2023-03-01T11:37:22;6.80;99.90
28677;DHT22;15858;48.338;11.078;2023-03-01T11:45:13;6.90;99.90
28677;DHT22;15858;48.338;11.078;2023-03-01T11:48:13;7.10;99.90
28677;DHT22;15858;48.338;11.078;2023-03-01T11:50:48;7.20;99.90
28677;DHT22;15858;48.338;11.078;2023-03-01T11:56:35;7.60;99.90
28677;DHT22;15858;48.338;11.078;2023-03-01T11:59:31;7.80;99.90
28677;DHT22;15858;48.338;11.078;2023-03-01T12:13:19;8.10;99.90
28677;DHT22;15858;48.338;11.078;2023-03-01T12:16:22;8.30;99.90
28677;DHT22;15858;48.338;11.078;2023-03-01T12:22:21;8.40;99.90
28677;DHT22;15858;48.338;11.078;2023-03-01T12:27:37;8.30;99.90
28677;DHT22;15858;48.338;11.078;2023-03-01T12:33:31;8.30;99.90
28677;DHT22;15858;48.338;11.078;2023-03-01T12:36:10;8.40;99.90
28677;DHT22;15858;48.338;11.078;2023-03-01T12:47:31;8.70;99.90
28677;DHT22;15858;48.338;11.078;2023-03-01T12:50:04;8.80;99.90
28677;DHT22;15858;48.338;11.078;2023-03-01T12:52:39;8.70;99.90
28677;DHT22;15858;48.338;11.078;2023-03-01T12:55:37;9.10;99.90
28677;DHT22;15858;48.338;11.078;2023-03-01T12:58:07;9.00;99.90
28677;DHT22;15858;48.338;11.078;2023-03-01T13:00:45;8.80;99.90
28677;DHT22;15858;48.338;11.078;2023-03-01T13:08:41;8.90;99.90
28677;DHT22;15858;48.338;11.078;2023-03-01T13:11:19;9.00;99.90
28677;DHT22;15858;48.338;11.078;2023-03-01T13:13:46;9.00;99.90
28677;DHT22;15858;48.338;11.078;2023-03-01T13:19:16;8.70;99.90
28677;DHT22;15858;48.338;11.078;2023-03-01T13:21:44;8.70;99.90
28677;DHT22;15858;48.338;11.078;2023-03-01T13:29:51;8.70;99.90
28677;DHT22;15858;48.338;11.078;2023-03-01T13:32:26;8.90;99.90
28677;DHT22;15858;48.338;11.078;2023-03-01T13:37:41;8.80;99.90
28677;DHT22;15858;48.338;11.078;2023-03-01T13:42:55;8.70;99.90
28677;DHT22;15858;48.338;11.078;2023-03-01T13:45:42;8.90;99.90
28677;DHT22;15858;48.338;11.078;2023-03-01T13:48:15;8.90;99.90
28677;DHT22;15858;48.338;11.078;2023-03-01T13:50:51;8.60;99.90
28677;DHT22;15858;48.338;11.078;2023-03-01T13:53:22;8.80;99.90
28677;DHT22;15858;48.338;11.078;2023-03-01T13:55:55;8.90;99.90
28677;DHT22;15858;48.338;11.078;2023-03-01T13:58:28;9.10;99.90
28677;DHT22;15858;48.338;11.078;2023-03-01T14:01:07;9.10;99.90
28677;DHT22;15858;48.338;11.078;2023-03-01T14:03:41;9.10;99.90
28677;DHT22;15858;48.338;11.078;2023-03-01T14:06:11;8.70;99.90
28677;DHT22;15858;48.338;11.078;2023-03-01T14:08:44;8.60;99.90
28677;DHT22;15858;48.338;11.078;2023-03-01T14:19:30;8.80;99.90
28677;DHT22;15858;48.338;11.078;2023-03-01T14:22:16;8.70;99.90
28677;DHT22;15858;48.338;11.078;2023-03-01T14:24:51;8.70;99.90
28677;DHT22;15858;48.338;11.078;2023-03-01T14:27:19;8.90;99.90
28677;DHT22;15858;48.338;11.078;2023-03-01T14:29:58;9.00;99.90
28677;DHT22;15858;48.338;11.078;2023-03-01T14:34:53;9.00;99.90
28677;DHT22;15858;48.338;11.078;2023-03-01T14:37:34;9.10;99.90
28677;DHT22;15858;48.338;11.078;2023-03-01T14:40:03;8.90;99.90
28677;DHT22;15858;48.338;11.078;2023-03-01T14:42:36;8.90;99.90
28677;DHT22;15858;48.338;11.078;2023-03-01T14:45:04;8.80;99.90
28677;DHT22;15858;48.338;11.078;2023-03-01T14:47:35;9.00;99.90
28677;DHT22;15858;48.338;11.078;2023-03-01T14:50:28;8.90;99.90
28677;DHT22;15858;48.338;11.078;2023-03-01T14:52:58;9.00;99.90
28677;DHT22;15858;48.338;11.078;2023-03-01T14:55:33;8.80;99.90
28677;DHT22;15858;48.338;11.078;2023-03-01T14:58:03;8.90;99.90
28677;DHT22;15858;48.338;11.078;2023-03-01T15:00:32;8.80;99.90
28677;DHT22;15858;48.338;11.078;2023-03-01T15:03:17;8.70;99.90
28677;DHT22;15858;48.338;11.078;2023-03-01T15:05:45;8.70;99.90
28677;DHT22;15858;48.338;11.078;2023-03-01T15:08:21;8.70;99.90
28677;DHT22;15858;48.338;11.078;2023-03-01T15:11:05;8.70;99.90
28677;DHT22;15858;48.338;11.078;2023-03-01T15:13:35;8.70;99.90
28677;DHT22;15858;48.338;11.078;2023-03-01T15:16:16;8.90;99.90
28677;DHT22;15858;48.338;11.078;2023-03-01T15:18:49;8.80;99.90
28677;DHT22;15858;48.338;11.078;2023-03-01T15:21:26;8.60;99.90
28677;DHT22;15858;48.338;11.078;2023-03-01T15:23:57;8.60;99.90
28677;DHT22;15858;48.338;11.078;2023-03-01T15:26:37;8.50;99.90
28677;DHT22;15858;48.338;11.078;2023-03-01T15:29:05;8.60;99.90
28677;DHT22;15858;48.338;11.078;2023-03-01T15:31:39;8.40;99.90
28677;DHT22;15858;48.338;11.078;2023-03-01T15:34:26;8.40;99.90
28677;DHT22;15858;48.338;11.078;2023-03-01T15:36:55;8.40;99.90
28677;DHT22;15858;48.338;11.078;2023-03-01T15:39:37;8.20;99.90
28677;DHT22;15858;48.338;11.078;2023-03-01T15:42:12;8.10;99.90
28677;DHT22;15858;48.338;11.078;2023-03-01T15:44:41;8.10;99.90
28677;DHT22;15858;48.338;11.078;2023-03-01T15:47:30;8.20;99.90
28677;DHT22;15858;48.338;11.078;2023-03-01T15:49:59;8.10;99.90
28677;DHT22;15858;48.338;11.078;2023-03-01T15:52:40;8.00;99.90
28677;DHT22;15858;48.338;11.078;2023-03-01T15:55:17;8.00;99.90
28677;DHT22;15858;48.338;11.078;2023-03-01T15:57:44;7.80;99.90
28677;DHT22;15858;48.338;11.078;2023-03-01T16:00:13;7.80;99.90
28677;DHT22;15858;48.338;11.078;2023-03-01T16:02:41;7.70;99.90
28677;DHT22;15858;48.338;11.078;2023-03-01T16:05:34;7.50;99.90
28677;DHT22;15858;48.338;11.078;2023-03-01T16:08:01;7.40;99.90
28677;DHT22;15858;48.338;11.078;2023-03-01T16:10:29;7.30;99.90
28677;DHT22;15858;48.338;11.078;2023-03-01T16:12:56;7.40;99.90
28677;DHT22;15858;48.338;11.078;2023-03-01T16:15:29;7.30;99.90
28677;DHT22;15858;48.338;11.078;2023-03-01T16:17:58;7.20;99.90
28677;DHT22;15858;48.338;11.078;2023-03-01T16:20:26;7.30;99.90
28677;DHT22;15858;48.338;11.078;2023-03-01T16:23:01;7.20;99.90
28677;DHT22;15858;48.338;11.078;2023-03-01T16:25:29;7.10;99.90
28677;DHT22;15858;48.338;11.078;2023-03-01T16:27:56;7.00;99.90
28677;DHT22;15858;48.338;11.078;2023-03-01T16:30:23;7.00;99.90
28677;DHT22;15858;48.338;11.078;2023-03-01T16:32:50;6.90;99.90
28677;DHT22;15858;48.338;11.078;2023-03-01T16:35:20;7.00;99.90
28677;DHT22;15858;48.338;11.078;2023-03-01T16:37:47;6.90;99.90
28677;DHT22;15858;48.338;11.078;2023-03-01T16:40:20;6.90;99.90
28677;DHT22;15858;48.338;11.078;2023-03-01T16:42:48;6.80;99.90
28677;DHT22;15858;48.338;11.078;2023-03-01T16:45:14;6.70;99.90
28677;DHT22;15858;48.338;11.078;2023-03-01T16:47:50;6.70;99.90
28677;DHT22;15858;48.338;11.078;2023-03-01T16:50:20;6.60;99.90
28677;DHT22;15858;48.338;11.078;2023-03-01T16:52:47;6.60;99.90
28677;DHT22;15858;48.338;11.078;2023-03-01T16:55:14;6.60;99.90
28677;DHT22;15858;48.338;11.078;2023-03-01T16:57:40;6.50;99.90
28677;DHT22;15858;48.338;11.078;2023-03-01T17:00:09;6.40;99.90
28677;DHT22;15858;48.338;11.078;2023-03-01T17:02:36;6.40;99.90
28677;DHT22;15858;48.338;11.078;2023-03-01T17:05:03;6.30;99.90
28677;DHT22;15858;48.338;11.078;2023-03-01T17:07:31;6.30;99.90
28677;DHT22;15858;48.338;11.078;2023-03-01T17:09:57;6.30;99.90
28677;DHT22;15858;48.338;11.078;2023-03-01T17:12:24;6.20;99.90
28677;DHT22;15858;48.338;11.078;2023-03-01T17:14:51;6.30;99.90
28677;DHT22;15858;48.338;11.078;2023-03-01T17:17:17;6.20;99.90
28677;DHT22;15858;48.338;11.078;2023-03-01T17:19:44;6.20;99.90
28677;DHT22;15858;48.338;11.078;2023-03-01T17:22:11;6.20;99.90
28677;DHT22;15858;48.338;11.078;2023-03-01T17:24:39;6.20;99.90
28677;DHT22;15858;48.338;11.078;2023-03-01T17:27:06;6.20;99.90
28677;DHT22;15858;48.338;11.078;2023-03-01T17:29:34;6.20;99.90
28677;DHT22;15858;48.338;11.078;2023-03-01T17:32:01;6.20;99.90